Arnett, TX

4:31 PM CDT on August 23, 2016 (GMT -0500)
Rhudys on Cedar Ridge | | Change Station

Elev 1043 ft 31.45 °N, 97.70 °W | Updated 22 seconds ago

Clear
Clear
93.4 °F
Feels Like 102 °F
N
2.3
Wind Variable Wind from SW
Gusts 2.3 mph

Today
High -- | Low -- °F
--% Chance of Precip.
Yesterday
High -- | Low -- °F
Precip. -- in
Pressure 30.09 in
Visibility 10.0 miles
Clouds Clear
Heat Index 102 °F
Dew Point 73 °F
Humidity 51%
Rainfall 0.00 in
Snow Depth Not available.
7:01 AM 8:04 PM
Waning Gibbous, 64% visible
METAR KGOP 232110Z AUTO 18010G16KT 10SM CLR 34/19 A3009 RMK AO2
Pressure 30.09 in
Visibility 10.0 miles
Clouds Clear
Heat Index 102 °F
Dew Point 73 °F
Humidity 51%
Rainfall 0.00 in
Snow Depth Not available.
7:01 AM 8:04 PM
Waning Gibbous, 64% visible
METAR KGOP 232110Z AUTO 18010G16KT 10SM CLR 34/19 A3009 RMK AO2

10-Day Weather Forecast

Almanac

Astronomy

Aug. 23, 2016 Rise Set
Actual Time
Civil Twilight
Nautical Twilight
Astronomical Twilight
Moon
Length of Visible Light
Length of Day
Tomorrow will be .
, % of the Moon is Illuminated

Today's Extremes

State Highs State Lows

Community

WunderPhotos

Upload Photos

1,934,470 photos uploaded!

WunderBlog® & News

Nearby

Air Quality

  Air Quality AQ Index Pollutant
Not available.

Snow Depth

Station Depth Elevation

Earthquake Activity

City Distance Mag. Time & Date
Minimum magnitude displayed is 2.5.

Coastal Water Temperatures

Place Temperature

Stations

Nearby Weather Stations

Station Location Temp. Windchill Dew Point Humidity Wind Precip. Elev Updated Type
                   

Watches & Warnings

There are currently no watches in effect.